メインページ
METAR-TAF:

METAR-TAF

空港 :

台湾桃園国際空港

台北, 台湾

緯度: 25-05N, 経度: 121-13E, 海抜: 33m

現時点の気象観測

当レポートは21分前の02:05(UTC)に作成
の風 19kt、最大31ktの突風を伴う
気温 22°C
湿度 69%
気圧 1024 hPa
視程10km以上
高度1500ftの雲はほとんどない
高度2000ftの雲は散在している
高度9000ftの千切れ雲あり

METAR: RCTP 150205Z 08019G31KT 9999 FEW015 SCT020 BKN090 22/16 Q1024 WS ALL RWY NOSIG RMK A3026

時間: 10:26 (02:26 UTC)

予報

当レポートは3時間26分前の23:00(UTC)に作成
予報は15日の 00時(UTC)から 16日の 06時(UTC)まで有効
東/北東の風 17kt
視程10km以上
高度1200ftの雲はほとんどない
高度2000ftの雲は散在している
高度3200ftの千切れ雲あり
15日の 00時(UTC)から 15日の 04時(UTC)まで一時的に
高度1000ftの雲はほとんどない
高度1600ftの千切れ雲あり
高度4000ftの千切れ雲あり
15日の 08時(UTC)から 15日の 14時(UTC)まで一時的に
の風 18kt、最大28ktの突風を伴う
15日の 14時(UTC)から 15日の 16時(UTC)まで徐々に
の風 10kt
15日の 18時(UTC)から 15日の 20時(UTC)まで徐々に
南/南東の風 5kt
16日の 01時(UTC)から 16日の 03時(UTC)まで徐々に
北/北西の風 5kt

TAF: RCTP 142300Z 1500/1606 06017KT 9999 FEW012 SCT020 BKN032 TEMPO 1500/1504 FEW010 BKN016 BKN040 TEMPO 1508/1514 09018G28KT BECMG 1514/1516 10010KT BECMG 1518/1520 15005KT BECMG 1601/1603 33005KT

4,000以上の空港の気象観測と天気予報(METAR報とTAF報)

利用可能な観測所は地図上に黄色い丸と赤い丸で示す。

丸の上にカーソルを重ねると観測所名を参照できる。

次にクリックすると気象観測と天気予報を参照できる。

マップの切り替え:黒色「×」印の緑ボタンをクリックして拡大、「-」印の緑ボタンをクリックして縮小、緑色の三角印をクリックして隣りの地図に切り替え


METAR-TAF: